Time;durP1;ratioP1;P1;durP2;ratioP2;P2;SDS_P1;SDS_P2;PMS_P1;PMS_P2;Temp;Humidity;BMP_temperature;BMP_pressure;BME280_temperature;BME280_humidity;BME280_pressure;Samples;Min_cycle;Max_cycle;Signal;HPM_P1;HPM_P2
2023/04/29 00:00:47;;;;;;;38.00;21.60;;;;;;;;;;107565;1249;22569;-76
2023/04/29 00:03:17;;;;;;;36.00;20.70;;;;;;;;;;107548;1254;22549;-78
2023/04/29 00:05:45;;;;;;;31.90;20.70;;;;;;;;;;107622;1250;25504;-76
2023/04/29 00:08:11;;;;;;;33.00;21.00;;;;;;;;;;107591;1252;25228;-78
2023/04/29 00:10:38;;;;;;;37.70;21.90;;;;;;;;;;107569;1250;22518;-76
2023/04/29 00:13:04;;;;;;;46.00;22.30;;;;;;;;;;107553;1249;22576;-79
2023/04/29 00:15:31;;;;;;;35.00;22.60;;;;;;;;;;107532;1250;25312;-77
2023/04/29 00:17:58;;;;;;;34.20;20.20;;;;;;;;;;107537;1250;22514;-77
2023/04/29 00:20:24;;;;;;;35.80;21.00;;;;;;;;;;107608;1250;22534;-79
2023/04/29 00:22:50;;;;;;;36.70;20.60;;;;;;;;;;107739;1248;25336;-80
2023/04/29 00:25:17;;;;;;;32.20;18.50;;;;;;;;;;107562;1250;22530;-77
2023/04/29 00:27:43;;;;;;;34.20;20.80;;;;;;;;;;107554;1249;22663;-78
2023/04/29 00:30:10;;;;;;;32.10;19.40;;;;;;;;;;107570;1252;22522;-77
2023/04/29 00:32:36;;;;;;;32.50;18.20;;;;;;;;;;107544;1250;22821;-78
2023/04/29 00:35:03;;;;;;;29.80;16.70;;;;;;;;;;107581;1250;24242;-78
2023/04/29 00:37:29;;;;;;;32.10;18.40;;;;;;;;;;107557;1249;24341;-78
2023/04/29 00:39:55;;;;;;;34.70;18.90;;;;;;;;;;107591;1248;22525;-77
2023/04/29 00:42:22;;;;;;;32.10;17.80;;;;;;;;;;107560;1250;25464;-77
2023/04/29 00:44:48;;;;;;;30.10;16.60;;;;;;;;;;107570;1250;22541;-77
2023/04/29 00:47:14;;;;;;;29.70;18.00;;;;;;;;;;107560;1252;22539;-78
2023/04/29 00:49:41;;;;;;;30.80;17.30;;;;;;;;;;108922;1248;22221;-77
2023/04/29 00:52:08;;;;;;;36.10;21.70;;;;;;;;;;109940;1250;22563;-78
2023/04/29 00:54:34;;;;;;;34.30;19.70;;;;;;;;;;110898;1250;22349;-76
2023/04/29 00:57:01;;;;;;;37.30;20.00;;;;;;;;;;110920;1250;22903;-77
2023/04/29 00:59:31;;;;;;;31.20;19.10;;;;;;;;;;109442;1253;25276;-78
2023/04/29 01:02:01;;;;;;;30.10;17.70;;;;;;;;;;107475;1250;23246;-78
2023/04/29 01:04:28;;;;;;;28.00;18.30;;;;;;;;;;107559;1250;22520;-77
2023/04/29 01:06:55;;;;;;;37.40;19.80;;;;;;;;;;107561;1249;22573;-77
2023/04/29 01:09:32;;;;;;;34.90;18.70;;;;;;;;;;108593;1248;22808;-78
2023/04/29 01:12:05;;;;;;;32.90;18.80;;;;;;;;;;107603;1252;25309;-77
2023/04/29 01:14:32;;;;;;;28.40;18.10;;;;;;;;;;108691;1250;22572;-78
2023/04/29 01:17:25;;;;;;;29.30;17.10;;;;;;;;;;110925;1248;22439;-79
2023/04/29 01:19:54;;;;;;;34.80;18.60;;;;;;;;;;107600;1249;25403;-77
2023/04/29 01:22:21;;;;;;;;;;;;;;;;;;110901;1248;23017;-78
2023/04/29 01:24:48;;;;;;;28.90;17.70;;;;;;;;;;110957;1250;22953;-78
2023/04/29 01:27:33;;;;;;;32.20;18.10;;;;;;;;;;110951;1250;22112;-75
2023/04/29 01:30:18;;;;;;;31.60;18.70;;;;;;;;;;110897;1249;23138;-76
2023/04/29 01:32:59;;;;;;;32.90;19.40;;;;;;;;;;110925;1248;22902;-76
2023/04/29 01:35:39;;;;;;;34.90;17.70;;;;;;;;;;108273;1250;24219;-78
2023/04/29 01:38:06;;;;;;;29.30;16.70;;;;;;;;;;107586;1252;22525;-77
2023/04/29 01:40:33;;;;;;;31.50;19.60;;;;;;;;;;110931;1249;22331;-78
2023/04/29 01:43:00;;;;;;;30.70;18.20;;;;;;;;;;108578;1252;25399;-78
2023/04/29 01:45:27;;;;;;;32.00;17.40;;;;;;;;;;107585;1248;25370;-78
2023/04/29 01:47:55;;;;;;;32.30;17.50;;;;;;;;;;107601;1250;22537;-78
2023/04/29 01:50:21;;;;;;;26.50;15.70;;;;;;;;;;107633;1253;25320;-78
2023/04/29 01:52:47;;;;;;;29.30;14.60;;;;;;;;;;107597;1250;23099;-77
2023/04/29 01:55:14;;;;;;;28.00;14.70;;;;;;;;;;107615;1250;24201;-77
2023/04/29 01:57:41;;;;;;;23.40;12.90;;;;;;;;;;107571;1251;22630;-77
2023/04/29 02:00:07;;;;;;;24.60;14.00;;;;;;;;;;107512;1250;147043;-78
2023/04/29 02:02:34;;;;;;;22.90;12.80;;;;;;;;;;107637;1250;23177;-77
2023/04/29 02:05:01;;;;;;;26.70;14.90;;;;;;;;;;107591;1250;24276;-77
2023/04/29 02:07:27;;;;;;;21.90;14.50;;;;;;;;;;107761;1248;22567;-78
2023/04/29 02:09:53;;;;;;;22.80;14.10;;;;;;;;;;107591;1251;24269;-77
2023/04/29 02:12:20;;;;;;;27.40;14.70;;;;;;;;;;107595;1250;23315;-78
2023/04/29 02:14:49;;;;;;;26.70;15.30;;;;;;;;;;107596;1250;26557;-78
2023/04/29 02:17:15;;;;;;;27.50;15.50;;;;;;;;;;107570;1248;23000;-77
2023/04/29 02:19:42;;;;;;;28.10;16.90;;;;;;;;;;107573;1250;25378;-78
2023/04/29 02:22:11;;;;;;;28.60;17.00;;;;;;;;;;107526;1250;25349;-77
2023/04/29 02:24:37;;;;;;;32.90;20.00;;;;;;;;;;107586;1252;22547;-78
2023/04/29 02:27:05;;;;;;;30.30;17.80;;;;;;;;;;107570;1248;25480;-77
2023/04/29 02:29:32;;;;;;;26.50;17.10;;;;;;;;;;107645;1252;22648;-78
2023/04/29 02:31:58;;;;;;;37.90;19.80;;;;;;;;;;107597;1250;25330;-77
2023/04/29 02:34:24;;;;;;;28.00;18.40;;;;;;;;;;107646;1250;22522;-77
2023/04/29 02:36:51;;;;;;;30.60;18.90;;;;;;;;;;107547;1250;25507;-78
2023/04/29 02:39:18;;;;;;;33.30;19.50;;;;;;;;;;107571;1248;25315;-79
2023/04/29 02:41:45;;;;;;;26.80;17.20;;;;;;;;;;107615;1250;22523;-77
2023/04/29 02:44:11;;;;;;;32.20;19.10;;;;;;;;;;107591;1252;24342;-78
2023/04/29 02:46:40;;;;;;;30.30;19.30;;;;;;;;;;107544;1250;49167;-79
2023/04/29 02:49:06;;;;;;;29.60;18.00;;;;;;;;;;107562;1250;26642;-77
2023/04/29 02:51:33;;;;;;;24.70;16.20;;;;;;;;;;107622;1250;22525;-79
2023/04/29 02:54:00;;;;;;;27.30;16.80;;;;;;;;;;109926;1249;22455;-78
2023/04/29 02:56:26;;;;;;;30.80;16.70;;;;;;;;;;110899;1250;22122;-79
2023/04/29 02:58:52;;;;;;;33.50;17.40;;;;;;;;;;110868;1249;22298;-75
2023/04/29 03:01:19;;;;;;;24.40;15.10;;;;;;;;;;110926;1249;22117;-76
2023/04/29 03:03:45;;;;;;;28.80;15.70;;;;;;;;;;110901;1249;22447;-75
2023/04/29 03:06:12;;;;;;;26.50;15.10;;;;;;;;;;110897;1250;22312;-75
2023/04/29 03:08:38;;;;;;;24.70;14.50;;;;;;;;;;109540;1249;22550;-79
2023/04/29 03:11:05;;;;;;;25.20;16.80;;;;;;;;;;107550;1250;25506;-78
2023/04/29 03:13:31;;;;;;;25.40;16.80;;;;;;;;;;107507;1250;23403;-79
2023/04/29 03:15:59;;;;;;;27.10;15.70;;;;;;;;;;107519;1248;51355;-78
2023/04/29 03:18:25;;;;;;;25.40;14.30;;;;;;;;;;107538;1251;22532;-78
2023/04/29 03:20:52;;;;;;;23.90;16.30;;;;;;;;;;107559;1252;22542;-79
2023/04/29 03:23:18;;;;;;;22.90;15.30;;;;;;;;;;107557;1250;23036;-79
2023/04/29 03:25:45;;;;;;;29.90;16.70;;;;;;;;;;107544;1252;22525;-77
2023/04/29 03:28:11;;;;;;;29.40;17.60;;;;;;;;;;107533;1250;22570;-77
2023/04/29 03:30:38;;;;;;;32.10;17.90;;;;;;;;;;107541;1250;22565;-79
2023/04/29 03:33:04;;;;;;;31.00;17.20;;;;;;;;;;107568;1249;25221;-78
2023/04/29 03:35:30;;;;;;;25.80;16.50;;;;;;;;;;109654;1250;22241;-78
2023/04/29 03:37:56;;;;;;;28.80;17.60;;;;;;;;;;110879;1250;22368;-77
2023/04/29 03:40:23;;;;;;;32.80;19.30;;;;;;;;;;110927;1249;22233;-76
2023/04/29 03:42:49;;;;;;;30.80;19.20;;;;;;;;;;110931;1250;22290;-76
2023/04/29 03:45:16;;;;;;;32.90;18.30;;;;;;;;;;110858;1250;22243;-77
2023/04/29 03:47:43;;;;;;;25.20;16.90;;;;;;;;;;110910;1248;23168;-77
2023/04/29 03:50:09;;;;;;;27.00;17.00;;;;;;;;;;108431;1249;22531;-78
2023/04/29 03:52:35;;;;;;;28.70;15.80;;;;;;;;;;107704;1251;22527;-79
2023/04/29 03:55:02;;;;;;;27.00;16.20;;;;;;;;;;107639;1248;22639;-80
2023/04/29 03:57:28;;;;;;;25.80;16.80;;;;;;;;;;107619;1253;25227;-79
2023/04/29 03:59:55;;;;;;;25.70;16.30;;;;;;;;;;108790;1251;22247;-78
2023/04/29 04:02:21;;;;;;;23.50;15.10;;;;;;;;;;108119;1250;22529;-78
2023/04/29 04:04:47;;;;;;;23.90;16.70;;;;;;;;;;107529;1248;24353;-79
2023/04/29 04:07:14;;;;;;;26.30;16.40;;;;;;;;;;107573;1250;24113;-78
2023/04/29 04:09:40;;;;;;;28.60;17.10;;;;;;;;;;107550;1250;22697;-79
2023/04/29 04:12:07;;;;;;;24.40;16.50;;;;;;;;;;107557;1252;25331;-79
2023/04/29 04:14:33;;;;;;;27.60;16.90;;;;;;;;;;107572;1252;22537;-79
2023/04/29 04:17:00;;;;;;;30.70;18.60;;;;;;;;;;107583;1251;25467;-79
2023/04/29 04:19:28;;;;;;;31.20;18.70;;;;;;;;;;107560;1252;25451;-77
2023/04/29 04:21:54;;;;;;;28.90;18.60;;;;;;;;;;107566;1252;24181;-79
2023/04/29 04:24:21;;;;;;;30.00;18.90;;;;;;;;;;107563;1252;22649;-77
2023/04/29 04:26:47;;;;;;;26.60;17.80;;;;;;;;;;107530;1253;22527;-78
2023/04/29 04:29:14;;;;;;;31.40;19.80;;;;;;;;;;107565;1250;22723;-77
2023/04/29 04:31:40;;;;;;;34.40;22.30;;;;;;;;;;107565;1253;22518;-77
2023/04/29 04:34:06;;;;;;;31.00;19.80;;;;;;;;;;107603;1252;25351;-79
2023/04/29 04:36:33;;;;;;;26.90;19.20;;;;;;;;;;107616;1252;23017;-79
2023/04/29 04:38:59;;;;;;;27.50;18.20;;;;;;;;;;107653;1250;22519;-80
2023/04/29 04:41:26;;;;;;;28.00;18.90;;;;;;;;;;107612;1251;23256;-79
2023/04/29 04:43:52;;;;;;;36.50;21.90;;;;;;;;;;107559;1250;22548;-79
2023/04/29 04:46:18;;;;;;;35.70;20.90;;;;;;;;;;107595;1252;22525;-79
2023/04/29 04:48:45;;;;;;;32.90;21.20;;;;;;;;;;107576;1252;24393;-77
2023/04/29 04:51:11;;;;;;;33.10;21.20;;;;;;;;;;107538;1252;22530;-78
2023/04/29 04:53:38;;;;;;;27.00;19.00;;;;;;;;;;107608;1253;22610;-77
2023/04/29 04:56:05;;;;;;;28.90;19.50;;;;;;;;;;107575;1252;25325;-77
2023/04/29 04:58:32;;;;;;;28.30;19.50;;;;;;;;;;107566;1251;25255;-77
2023/04/29 05:00:58;;;;;;;27.50;19.70;;;;;;;;;;107579;1251;25389;-78
2023/04/29 05:03:25;;;;;;;27.60;17.60;;;;;;;;;;107599;1251;22543;-77
2023/04/29 05:05:55;;;;;;;23.90;16.90;;;;;;;;;;107560;1254;22522;-77
2023/04/29 05:08:22;;;;;;;29.50;16.50;;;;;;;;;;107851;1252;22615;-79
2023/04/29 05:10:48;;;;;;;26.40;16.70;;;;;;;;;;107576;1251;22556;-79
2023/04/29 05:13:14;;;;;;;29.40;19.90;;;;;;;;;;107512;1254;22548;-79
2023/04/29 05:15:41;;;;;;;25.60;16.90;;;;;;;;;;107608;1251;23252;-77
2023/04/29 05:18:08;;;;;;;27.90;19.00;;;;;;;;;;107772;1251;23148;-77
2023/04/29 05:20:34;;;;;;;26.10;17.40;;;;;;;;;;107767;1251;22985;-79
2023/04/29 05:23:01;;;;;;;29.00;18.70;;;;;;;;;;107583;1252;25274;-78
2023/04/29 05:25:27;;;;;;;28.00;19.50;;;;;;;;;;107611;1251;22545;-77
2023/04/29 05:27:54;;;;;;;31.60;21.30;;;;;;;;;;107523;1251;24250;-78
2023/04/29 05:30:20;;;;;;;29.50;21.50;;;;;;;;;;107687;1251;22636;-77
2023/04/29 05:32:47;;;;;;;29.30;21.00;;;;;;;;;;107577;1252;23622;-78
2023/04/29 05:35:14;;;;;;;27.30;19.00;;;;;;;;;;107571;1251;24360;-79
2023/04/29 05:37:40;;;;;;;28.10;19.70;;;;;;;;;;107614;1251;22584;-77
2023/04/29 05:40:08;;;;;;;25.00;18.40;;;;;;;;;;107538;1251;25386;-79
2023/04/29 05:42:35;;;;;;;30.00;19.90;;;;;;;;;;107531;1251;22543;-79
2023/04/29 05:45:01;;;;;;;24.60;14.60;;;;;;;;;;107574;1249;22992;-75
2023/04/29 05:47:27;;;;;;;20.10;13.80;;;;;;;;;;107520;1251;24228;-77
2023/04/29 05:49:54;;;;;;;20.60;14.10;;;;;;;;;;107575;1251;22569;-78
2023/04/29 05:52:20;;;;;;;17.80;12.80;;;;;;;;;;107556;1252;25266;-76
2023/04/29 05:54:47;;;;;;;17.40;13.40;;;;;;;;;;107545;1253;22535;-76
2023/04/29 05:57:13;;;;;;;19.20;14.40;;;;;;;;;;107543;1250;25469;-76
2023/04/29 05:59:39;;;;;;;25.20;14.50;;;;;;;;;;107601;1252;25315;-76
2023/04/29 06:02:06;;;;;;;26.00;18.30;;;;;;;;;;107563;1250;25309;-77
2023/04/29 06:04:32;;;;;;;22.70;14.30;;;;;;;;;;107571;1249;23738;-78
2023/04/29 06:06:59;;;;;;;18.70;14.40;;;;;;;;;;107484;1253;26680;-77
2023/04/29 06:09:25;;;;;;;22.30;16.10;;;;;;;;;;107598;1251;22527;-78
2023/04/29 06:11:52;;;;;;;19.80;14.50;;;;;;;;;;107562;1250;23341;-78
2023/04/29 06:14:18;;;;;;;30.60;20.60;;;;;;;;;;107661;1253;22570;-76
2023/04/29 06:16:45;;;;;;;21.10;15.30;;;;;;;;;;107581;1252;25375;-77
2023/04/29 06:19:11;;;;;;;21.10;16.10;;;;;;;;;;107617;1253;25297;-76
2023/04/29 06:21:37;;;;;;;22.70;16.00;;;;;;;;;;107620;1253;22540;-78
2023/04/29 06:24:04;;;;;;;19.10;13.80;;;;;;;;;;107784;1251;22823;-78
2023/04/29 06:26:30;;;;;;;17.00;12.40;;;;;;;;;;107714;1251;22535;-77
2023/04/29 06:28:57;;;;;;;16.90;11.60;;;;;;;;;;107606;1251;22539;-76
2023/04/29 06:31:23;;;;;;;21.20;12.70;;;;;;;;;;107786;1251;23256;-76
2023/04/29 06:33:50;;;;;;;20.20;11.40;;;;;;;;;;107792;1251;22674;-76
2023/04/29 06:36:16;;;;;;;20.20;13.40;;;;;;;;;;107776;1253;22537;-76
2023/04/29 06:38:42;;;;;;;16.80;11.70;;;;;;;;;;107780;1250;22518;-76
2023/04/29 06:41:09;;;;;;;21.50;13.20;;;;;;;;;;107761;1250;23340;-78
2023/04/29 06:43:35;;;;;;;18.20;12.90;;;;;;;;;;107808;1250;22543;-78
2023/04/29 06:46:02;;;;;;;18.50;13.70;;;;;;;;;;107616;1249;24266;-78
2023/04/29 06:48:28;;;;;;;17.90;12.10;;;;;;;;;;107588;1252;22546;-78
2023/04/29 06:50:55;;;;;;;18.10;11.70;;;;;;;;;;107550;1251;22536;-76
2023/04/29 06:53:21;;;;;;;21.70;13.60;;;;;;;;;;107588;1251;23003;-76
2023/04/29 06:55:48;;;;;;;18.10;11.60;;;;;;;;;;107629;1249;22474;-78
2023/04/29 06:58:15;;;;;;;16.60;11.70;;;;;;;;;;107705;1251;22523;-80
2023/04/29 07:00:45;;;;;;;17.10;10.30;;;;;;;;;;107693;1248;24251;-78
2023/04/29 07:03:11;;;;;;;17.60;10.20;;;;;;;;;;107772;1253;22524;-77
2023/04/29 07:05:39;;;;;;;21.00;10.60;;;;;;;;;;107564;1252;22542;-79
2023/04/29 07:08:06;;;;;;;15.10;10.80;;;;;;;;;;107735;1250;24465;-80
2023/04/29 07:10:32;;;;;;;26.10;13.50;;;;;;;;;;107578;1248;22523;-78
2023/04/29 07:12:59;;;;;;;16.00;11.00;;;;;;;;;;107567;1249;22528;-78
2023/04/29 07:15:26;;;;;;;18.70;11.50;;;;;;;;;;107550;1251;22563;-77
2023/04/29 07:17:53;;;;;;;27.60;13.70;;;;;;;;;;107705;1248;25246;-80
2023/04/29 07:20:19;;;;;;;17.10;10.90;;;;;;;;;;107613;1248;22526;-78
2023/04/29 07:22:45;;;;;;;21.50;10.10;;;;;;;;;;107558;1251;23283;-78
2023/04/29 07:25:12;;;;;;;10.90;8.50;;;;;;;;;;107588;1251;22537;-77
2023/04/29 07:27:38;;;;;;;13.70;8.50;;;;;;;;;;107598;1249;24221;-79
2023/04/29 07:30:05;;;;;;;16.40;9.80;;;;;;;;;;107606;1251;22524;-78
2023/04/29 07:32:31;;;;;;;15.90;9.50;;;;;;;;;;107623;1253;25246;-79
2023/04/29 07:34:58;;;;;;;11.40;7.80;;;;;;;;;;107802;1251;22530;-76
2023/04/29 07:37:24;;;;;;;9.90;6.60;;;;;;;;;;107793;1247;25321;-79
2023/04/29 07:39:50;;;;;;;12.40;7.20;;;;;;;;;;107707;1250;25330;-77
2023/04/29 07:42:17;;;;;;;13.60;7.20;;;;;;;;;;107607;1251;22526;-77
2023/04/29 07:44:44;;;;;;;10.10;7.10;;;;;;;;;;107594;1251;25305;-79
2023/04/29 07:47:11;;;;;;;10.80;6.60;;;;;;;;;;107553;1251;24230;-78
2023/04/29 07:49:37;;;;;;;11.30;7.20;;;;;;;;;;107766;1251;25343;-77
2023/04/29 07:52:04;;;;;;;12.40;8.20;;;;;;;;;;107584;1250;25331;-78
2023/04/29 07:54:30;;;;;;;11.50;7.50;;;;;;;;;;107624;1251;22515;-77
2023/04/29 07:56:57;;;;;;;10.10;8.10;;;;;;;;;;107592;1249;22674;-79
2023/04/29 07:59:23;;;;;;;10.20;7.60;;;;;;;;;;107571;1251;25303;-79
2023/04/29 08:01:51;;;;;;;12.10;7.70;;;;;;;;;;107562;1248;22530;-79
2023/04/29 08:04:17;;;;;;;11.30;7.00;;;;;;;;;;107576;1251;22651;-78
2023/04/29 08:06:44;;;;;;;10.20;7.10;;;;;;;;;;107721;1247;24324;-77
2023/04/29 08:09:10;;;;;;;10.00;6.90;;;;;;;;;;107709;1251;24094;-77
2023/04/29 08:11:38;;;;;;;10.30;6.20;;;;;;;;;;107500;1251;22658;-77
2023/04/29 08:14:05;;;;;;;11.10;7.90;;;;;;;;;;107541;1249;25335;-77
2023/04/29 08:16:32;;;;;;;8.30;5.30;;;;;;;;;;107680;1251;25511;-77
2023/04/29 08:18:58;;;;;;;14.40;9.40;;;;;;;;;;108010;1251;22551;-79
2023/04/29 08:21:24;;;;;;;13.20;6.50;;;;;;;;;;107931;1252;22518;-80
2023/04/29 08:23:51;;;;;;;11.50;6.70;;;;;;;;;;107724;1251;25240;-79
2023/04/29 08:26:17;;;;;;;9.50;6.60;;;;;;;;;;107674;1251;25395;-78
2023/04/29 08:28:44;;;;;;;12.30;7.60;;;;;;;;;;107718;1251;23760;-79
2023/04/29 08:31:19;;;;;;;10.80;6.80;;;;;;;;;;107699;1251;22644;-78
2023/04/29 08:33:46;;;;;;;9.40;5.30;;;;;;;;;;107668;1249;22754;-79
2023/04/29 08:36:12;;;;;;;11.00;6.50;;;;;;;;;;107723;1250;22528;-80
2023/04/29 08:38:39;;;;;;;13.40;8.00;;;;;;;;;;107619;1252;22536;-79
2023/04/29 08:41:08;;;;;;;9.70;6.30;;;;;;;;;;107821;1247;22612;-78
2023/04/29 08:43:36;;;;;;;14.70;7.90;;;;;;;;;;107766;1249;24277;-79
2023/04/29 08:46:02;;;;;;;14.60;6.40;;;;;;;;;;107635;1251;25507;-78
2023/04/29 08:48:29;;;;;;;12.10;6.50;;;;;;;;;;107669;1248;26573;-78
2023/04/29 08:50:57;;;;;;;16.30;6.50;;;;;;;;;;107605;1250;24255;-77
2023/04/29 08:53:24;;;;;;;7.30;4.80;;;;;;;;;;107590;1250;23442;-78
2023/04/29 08:55:50;;;;;;;10.50;6.60;;;;;;;;;;107579;1251;23866;-77
2023/04/29 08:58:17;;;;;;;10.70;6.80;;;;;;;;;;107545;1251;22520;-78
2023/04/29 09:00:43;;;;;;;10.80;5.60;;;;;;;;;;107562;1251;24186;-78
2023/04/29 09:03:15;;;;;;;11.60;5.60;;;;;;;;;;107620;1249;24189;-77
2023/04/29 09:05:42;;;;;;;9.10;5.40;;;;;;;;;;107539;1250;22538;-80
2023/04/29 09:08:08;;;;;;;9.90;5.80;;;;;;;;;;107598;1251;24241;-78
2023/04/29 09:10:35;;;;;;;15.30;6.80;;;;;;;;;;107649;1250;25391;-79
2023/04/29 09:13:02;;;;;;;9.30;6.60;;;;;;;;;;107663;1250;22536;-78
2023/04/29 09:15:28;;;;;;;8.70;4.90;;;;;;;;;;107682;1251;24237;-78
2023/04/29 09:17:55;;;;;;;13.20;6.50;;;;;;;;;;107668;1249;25221;-79
2023/04/29 09:20:22;;;;;;;6.40;4.40;;;;;;;;;;107600;1250;26477;-77
2023/04/29 09:22:49;;;;;;;9.80;5.80;;;;;;;;;;107642;1250;22618;-77
2023/04/29 09:25:15;;;;;;;8.30;4.60;;;;;;;;;;107585;1249;25329;-77
2023/04/29 09:27:41;;;;;;;11.70;5.20;;;;;;;;;;107602;1250;25335;-78
2023/04/29 09:30:08;;;;;;;8.00;4.80;;;;;;;;;;107611;1251;22934;-77
2023/04/29 09:32:35;;;;;;;9.50;5.00;;;;;;;;;;107556;1251;22534;-78
2023/04/29 09:35:20;;;;;;;5.70;4.60;;;;;;;;;;107607;1251;22518;-79
2023/04/29 09:37:46;;;;;;;13.40;5.00;;;;;;;;;;107610;1249;22526;-79
2023/04/29 09:40:29;;;;;;;7.40;4.40;;;;;;;;;;107703;1248;25423;-78
2023/04/29 09:42:56;;;;;;;7.80;4.50;;;;;;;;;;107851;1248;22666;-78
2023/04/29 09:45:35;;;;;;;10.10;5.30;;;;;;;;;;107621;1250;24350;-78
2023/04/29 09:48:02;;;;;;;9.90;5.80;;;;;;;;;;107556;1250;22532;-78
2023/04/29 09:50:29;;;;;;;5.40;4.10;;;;;;;;;;107597;1250;23121;-78
2023/04/29 09:52:56;;;;;;;13.80;4.70;;;;;;;;;;107613;1250;22521;-78
2023/04/29 09:55:22;;;;;;;11.20;5.80;;;;;;;;;;107535;1249;22651;-79
2023/04/29 09:57:49;;;;;;;8.90;5.10;;;;;;;;;;107598;1249;22969;-76
2023/04/29 10:00:15;;;;;;;9.40;5.10;;;;;;;;;;107588;1250;22919;-78
2023/04/29 10:02:42;;;;;;;9.80;7.20;;;;;;;;;;107597;1252;25442;-77
2023/04/29 10:05:09;;;;;;;12.00;6.60;;;;;;;;;;107546;1250;23267;-78
2023/04/29 10:07:35;;;;;;;12.00;6.30;;;;;;;;;;107650;1249;23687;-76
2023/04/29 10:10:02;;;;;;;9.40;7.70;;;;;;;;;;107547;1251;22518;-77
2023/04/29 10:12:28;;;;;;;6.40;5.80;;;;;;;;;;107553;1253;22532;-79
2023/04/29 10:14:58;;;;;;;60.80;30.90;;;;;;;;;;107606;1250;24383;-77
2023/04/29 10:17:45;;;;;;;31.10;16.40;;;;;;;;;;107603;1248;25343;-78
2023/04/29 10:20:13;;;;;;;10.80;6.20;;;;;;;;;;107574;1248;24433;-79
2023/04/29 10:22:46;;;;;;;10.00;5.00;;;;;;;;;;107595;1252;22530;-78
2023/04/29 10:25:17;;;;;;;7.40;4.30;;;;;;;;;;107707;1249;22522;-76
2023/04/29 10:27:43;;;;;;;8.50;4.60;;;;;;;;;;107887;1253;22531;-76
2023/04/29 10:30:13;;;;;;;6.80;4.20;;;;;;;;;;107575;1252;22522;-78
2023/04/29 10:32:40;;;;;;;7.20;4.10;;;;;;;;;;107628;1250;24247;-78
2023/04/29 10:35:08;;;;;;;7.00;4.40;;;;;;;;;;107559;1248;22658;-79
2023/04/29 10:37:35;;;;;;;8.50;4.50;;;;;;;;;;107664;1248;22522;-78
2023/04/29 10:40:14;;;;;;;6.50;3.90;;;;;;;;;;107662;1251;22528;-77
2023/04/29 10:42:41;;;;;;;5.10;4.30;;;;;;;;;;107844;1248;25315;-76
2023/04/29 10:45:25;;;;;;;33.80;17.10;;;;;;;;;;107794;1249;25479;-78
2023/04/29 10:48:01;;;;;;;27.10;13.60;;;;;;;;;;107685;1250;25376;-78
2023/04/29 10:50:28;;;;;;;15.70;7.30;;;;;;;;;;107611;1249;25329;-76
2023/04/29 10:52:55;;;;;;;12.90;7.80;;;;;;;;;;107544;1251;22542;-78
2023/04/29 10:55:24;;;;;;;7.00;4.30;;;;;;;;;;107624;1250;22553;-78
2023/04/29 10:57:57;;;;;;;63.80;32.10;;;;;;;;;;107558;1250;22526;-78
2023/04/29 11:00:26;;;;;;;17.60;10.20;;;;;;;;;;108240;1248;22618;-78
2023/04/29 11:02:53;;;;;;;6.70;4.40;;;;;;;;;;107618;1248;26506;-78
2023/04/29 11:05:29;;;;;;;5.20;3.50;;;;;;;;;;107653;1248;25396;-77
2023/04/29 11:08:09;;;;;;;5.80;3.80;;;;;;;;;;107615;1247;22643;-77
2023/04/29 11:10:36;;;;;;;6.00;3.60;;;;;;;;;;107734;1249;25459;-77
2023/04/29 11:13:21;;;;;;;5.60;3.70;;;;;;;;;;107623;1248;26021;-76
2023/04/29 11:15:50;;;;;;;8.50;3.90;;;;;;;;;;107763;1248;22521;-78
2023/04/29 11:18:16;;;;;;;;;;;;;;;;;;107824;1247;22525;-77
2023/04/29 11:21:01;;;;;;;10.60;4.40;;;;;;;;;;107855;1248;24224;-79
2023/04/29 11:23:28;;;;;;;6.90;3.50;;;;;;;;;;107822;1252;22533;-76
2023/04/29 11:25:55;;;;;;;5.20;3.60;;;;;;;;;;107798;1249;23274;-79
2023/04/29 11:28:21;;;;;;;5.50;3.30;;;;;;;;;;107836;1248;22612;-79
2023/04/29 11:30:48;;;;;;;6.40;4.20;;;;;;;;;;108040;1252;25348;-77
2023/04/29 11:33:15;;;;;;;4.90;3.80;;;;;;;;;;107622;1250;22540;-79
2023/04/29 11:35:41;;;;;;;5.10;3.40;;;;;;;;;;107642;1248;23082;-79
2023/04/29 11:38:08;;;;;;;6.50;4.10;;;;;;;;;;107621;1250;22573;-77
2023/04/29 11:40:34;;;;;;;8.00;4.80;;;;;;;;;;107630;1249;22532;-78
2023/04/29 11:43:01;;;;;;;15.90;9.00;;;;;;;;;;107677;1248;22810;-77
2023/04/29 11:45:27;;;;;;;8.20;4.60;;;;;;;;;;107656;1249;22530;-78
2023/04/29 11:47:53;;;;;;;7.90;4.80;;;;;;;;;;107670;1250;24240;-77
2023/04/29 11:50:19;;;;;;;8.10;5.00;;;;;;;;;;107679;1249;24257;-78
2023/04/29 11:52:46;;;;;;;7.30;4.10;;;;;;;;;;107658;1250;24956;-77
2023/04/29 11:55:13;;;;;;;9.60;5.30;;;;;;;;;;107686;1249;25495;-79
2023/04/29 11:57:39;;;;;;;6.60;4.20;;;;;;;;;;107657;1249;22592;-77
2023/04/29 12:00:11;;;;;;;6.70;4.60;;;;;;;;;;107623;1250;24229;-79
2023/04/29 12:02:38;;;;;;;6.40;4.70;;;;;;;;;;107613;1249;25400;-79
2023/04/29 12:05:06;;;;;;;9.10;4.00;;;;;;;;;;107681;1249;26448;-80
2023/04/29 12:07:32;;;;;;;12.30;6.40;;;;;;;;;;107581;1252;25421;-80
2023/04/29 12:09:59;;;;;;;11.20;5.80;;;;;;;;;;107602;1249;22712;-80
2023/04/29 12:12:30;;;;;;;8.50;5.70;;;;;;;;;;107590;1252;25384;-78
2023/04/29 12:14:56;;;;;;;8.40;5.40;;;;;;;;;;107556;1252;22615;-78
2023/04/29 12:17:23;;;;;;;9.20;4.60;;;;;;;;;;107553;1250;24196;-79
2023/04/29 12:19:49;;;;;;;8.70;5.00;;;;;;;;;;107625;1252;25452;-79
2023/04/29 12:22:15;;;;;;;7.20;4.50;;;;;;;;;;107558;1250;22621;-78
2023/04/29 12:24:42;;;;;;;5.70;4.10;;;;;;;;;;107552;1250;25410;-79
2023/04/29 12:27:09;;;;;;;12.00;5.50;;;;;;;;;;107578;1248;22719;-80
2023/04/29 12:29:36;;;;;;;10.50;5.40;;;;;;;;;;107502;1250;22635;-79
2023/04/29 12:32:02;;;;;;;8.90;4.90;;;;;;;;;;107586;1249;24196;-80
2023/04/29 12:34:29;;;;;;;7.90;5.30;;;;;;;;;;107539;1248;22624;-78
2023/04/29 12:36:59;;;;;;;12.50;6.40;;;;;;;;;;107627;1249;25315;-78
2023/04/29 12:39:26;;;;;;;13.10;6.10;;;;;;;;;;107615;1249;23406;-78
2023/04/29 12:41:58;;;;;;;11.10;6.40;;;;;;;;;;107689;1250;22605;-78
2023/04/29 12:44:25;;;;;;;9.90;6.50;;;;;;;;;;107519;1249;22523;-78
2023/04/29 12:46:52;;;;;;;11.10;7.90;;;;;;;;;;107555;1249;23249;-78
2023/04/29 12:49:19;;;;;;;12.20;8.20;;;;;;;;;;107586;1249;24120;-79
2023/04/29 12:51:45;;;;;;;8.90;5.50;;;;;;;;;;107572;1248;22524;-79
2023/04/29 12:54:12;;;;;;;9.50;6.60;;;;;;;;;;107595;1249;24353;-79
2023/04/29 12:56:38;;;;;;;7.90;5.40;;;;;;;;;;107563;1250;23238;-78
2023/04/29 12:59:08;;;;;;;11.20;6.20;;;;;;;;;;107547;1248;22515;-78
2023/04/29 13:01:35;;;;;;;16.00;7.50;;;;;;;;;;107590;1249;22524;-80
2023/04/29 13:04:03;;;;;;;11.20;7.10;;;;;;;;;;107580;1250;25511;-78
2023/04/29 13:06:30;;;;;;;14.80;10.50;;;;;;;;;;107619;1248;23001;-79
2023/04/29 13:08:57;;;;;;;52.70;30.60;;;;;;;;;;107614;1250;23726;-79
2023/04/29 13:11:23;;;;;;;39.20;21.50;;;;;;;;;;107592;1251;25361;-78
2023/04/29 13:13:50;;;;;;;43.60;27.30;;;;;;;;;;107590;1249;25500;-78
2023/04/29 13:16:17;;;;;;;16.40;10.40;;;;;;;;;;107650;1248;22524;-78
2023/04/29 13:18:44;;;;;;;17.50;11.30;;;;;;;;;;107769;1249;25485;-79
2023/04/29 13:21:10;;;;;;;15.10;10.70;;;;;;;;;;107570;1250;22552;-79
2023/04/29 13:23:37;;;;;;;29.70;16.10;;;;;;;;;;107596;1248;22735;-78
2023/04/29 13:26:04;;;;;;;17.40;10.10;;;;;;;;;;107585;1250;24385;-78
2023/04/29 13:28:30;;;;;;;14.70;9.10;;;;;;;;;;107594;1250;22901;-80
2023/04/29 13:30:57;;;;;;;8.60;6.60;;;;;;;;;;107657;1250;22623;-83
2023/04/29 13:33:23;;;;;;;11.20;8.10;;;;;;;;;;107617;1250;25261;-80
2023/04/29 13:35:49;;;;;;;11.80;8.40;;;;;;;;;;107494;1250;22611;-77
2023/04/29 13:38:17;;;;;;;10.10;6.90;;;;;;;;;;107543;1248;24228;-77
2023/04/29 13:40:43;;;;;;;10.50;7.50;;;;;;;;;;107560;1250;23158;-79
2023/04/29 13:43:10;;;;;;;12.30;8.30;;;;;;;;;;107645;1249;22627;-77
2023/04/29 13:45:36;;;;;;;12.10;6.70;;;;;;;;;;107576;1250;22590;-78
2023/04/29 13:48:02;;;;;;;9.90;6.60;;;;;;;;;;107755;1250;25362;-77
2023/04/29 13:50:29;;;;;;;11.70;8.30;;;;;;;;;;107600;1249;25436;-79
2023/04/29 13:52:56;;;;;;;14.90;12.90;;;;;;;;;;107504;1253;22521;-77
2023/04/29 13:55:22;;;;;;;11.00;7.20;;;;;;;;;;107624;1250;22887;-77
2023/04/29 13:57:49;;;;;;;12.90;8.60;;;;;;;;;;107554;1249;22642;-79
2023/04/29 14:00:16;;;;;;;12.10;7.30;;;;;;;;;;107435;1249;158422;-77
2023/04/29 14:02:42;;;;;;;10.80;7.60;;;;;;;;;;107585;1252;22531;-79
2023/04/29 14:05:09;;;;;;;28.90;22.40;;;;;;;;;;107572;1248;24194;-77
2023/04/29 14:07:35;;;;;;;28.00;21.50;;;;;;;;;;107548;1248;22622;-78
2023/04/29 14:10:02;;;;;;;25.60;17.00;;;;;;;;;;107586;1248;22614;-79
2023/04/29 14:12:28;;;;;;;23.30;15.40;;;;;;;;;;107560;1249;25537;-77
2023/04/29 14:14:55;;;;;;;11.20;9.70;;;;;;;;;;107587;1248;24351;-78